PADK/ADK METAR and TAF weather

Enter ICAO airport designator
Station Type Date Time Source
PADK METAR 2022/06/26 09:09 UTC NOAA

PADK 260909Z AUTO 25010KT OVC006 07/07 A2987 RMK AO2 PWINO


Station Type Date Time Source
PADK Decoded METAR 2022/06/26 09:09 UTC NOAA

Adak Island, Adak Airport, AK, United States (PADK) 51-52-40N 176-38-45W 4M
Jun 26, 2022 - 05:09 AM EDT / 2022.06.26 0909 UTC
Wind: from the WSW (250 degrees) at 12 MPH (10 KT):0
Sky conditions: overcast
Temperature: 44 F (7 C)
Dew Point: 44 F (7 C)
Relative Humidity: 100%
Pressure (altimeter): 29.87 in. Hg (1011 hPa)
ob: PADK 260909Z AUTO 25010KT OVC006 07/07 A2987 RMK AO2 PWINO
cycle: 9

Station Type Date Time Source
PADK TAF 2007/04/07 12:54 UTC NOAA

TAF PADK 070404 33010G15KT 9999 FEW025 BKN030 OVC050 QNH2900INS T03/00Z TM01/18Z COR 1205 LAST NO
AMDS AFT 0712;

Example: see airport list